sensor_id;sensor_type;location;lat;lon;timestamp;P1;durP1;ratioP1;P2;durP2;ratioP2
14118;SDS011;7138;49.246;9.100;2023-05-10T00:01:53;1.90;;;0.70;;
14118;SDS011;7138;49.246;9.100;2023-05-10T00:04:19;1.25;;;0.55;;
14118;SDS011;7138;49.246;9.100;2023-05-10T00:06:45;2.17;;;0.60;;
14118;SDS011;7138;49.246;9.100;2023-05-10T00:09:11;2.67;;;0.75;;
14118;SDS011;7138;49.246;9.100;2023-05-10T00:11:37;3.78;;;0.88;;
14118;SDS011;7138;49.246;9.100;2023-05-10T00:14:03;3.58;;;0.70;;
14118;SDS011;7138;49.246;9.100;2023-05-10T00:16:28;2.20;;;0.68;;
14118;SDS011;7138;49.246;9.100;2023-05-10T00:18:56;4.20;;;0.90;;
14118;SDS011;7138;49.246;9.100;2023-05-10T00:21:22;3.28;;;0.80;;
14118;SDS011;7138;49.246;9.100;2023-05-10T00:23:47;4.10;;;0.80;;
14118;SDS011;7138;49.246;9.100;2023-05-10T00:26:13;1.90;;;0.90;;
14118;SDS011;7138;49.246;9.100;2023-05-10T00:28:40;2.78;;;0.77;;
14118;SDS011;7138;49.246;9.100;2023-05-10T00:31:06;1.83;;;0.70;;
14118;SDS011;7138;49.246;9.100;2023-05-10T00:33:31;1.52;;;0.70;;
14118;SDS011;7138;49.246;9.100;2023-05-10T00:35:58;2.20;;;0.80;;
14118;SDS011;7138;49.246;9.100;2023-05-10T00:38:24;2.10;;;0.80;;
14118;SDS011;7138;49.246;9.100;2023-05-10T00:40:50;2.60;;;0.80;;
14118;SDS011;7138;49.246;9.100;2023-05-10T00:43:16;1.50;;;0.60;;
14118;SDS011;7138;49.246;9.100;2023-05-10T00:45:42;3.55;;;0.80;;
14118;SDS011;7138;49.246;9.100;2023-05-10T00:48:09;3.05;;;0.55;;
14118;SDS011;7138;49.246;9.100;2023-05-10T00:50:35;3.80;;;0.75;;
14118;SDS011;7138;49.246;9.100;2023-05-10T00:53:02;2.17;;;0.60;;
14118;SDS011;7138;49.246;9.100;2023-05-10T00:55:28;4.05;;;0.70;;
14118;SDS011;7138;49.246;9.100;2023-05-10T00:57:56;2.70;;;0.65;;
14118;SDS011;7138;49.246;9.100;2023-05-10T01:00:21;1.35;;;0.57;;
14118;SDS011;7138;49.246;9.100;2023-05-10T01:02:47;2.67;;;0.80;;
14118;SDS011;7138;49.246;9.100;2023-05-10T01:05:14;3.00;;;1.00;;
14118;SDS011;7138;49.246;9.100;2023-05-10T01:07:40;3.67;;;0.90;;
14118;SDS011;7138;49.246;9.100;2023-05-10T01:10:08;1.75;;;0.70;;
14118;SDS011;7138;49.246;9.100;2023-05-10T01:12:35;2.83;;;0.80;;
14118;SDS011;7138;49.246;9.100;2023-05-10T01:15:05;2.20;;;0.85;;
14118;SDS011;7138;49.246;9.100;2023-05-10T01:17:34;2.17;;;0.98;;
14118;SDS011;7138;49.246;9.100;2023-05-10T01:20:02;2.10;;;0.80;;
14118;SDS011;7138;49.246;9.100;2023-05-10T01:22:39;1.92;;;0.70;;
14118;SDS011;7138;49.246;9.100;2023-05-10T01:26:02;2.88;;;0.85;;
14118;SDS011;7138;49.246;9.100;2023-05-10T01:28:58;2.30;;;1.00;;
14118;SDS011;7138;49.246;9.100;2023-05-10T01:31:59;2.83;;;0.80;;
14118;SDS011;7138;49.246;9.100;2023-05-10T01:34:54;3.67;;;1.40;;
14118;SDS011;7138;49.246;9.100;2023-05-10T01:37:31;3.22;;;1.30;;
14118;SDS011;7138;49.246;9.100;2023-05-10T01:40:08;3.28;;;1.30;;
14118;SDS011;7138;49.246;9.100;2023-05-10T01:42:46;2.50;;;1.40;;
14118;SDS011;7138;49.246;9.100;2023-05-10T01:45:18;2.88;;;1.25;;
14118;SDS011;7138;49.246;9.100;2023-05-10T01:47:56;6.53;;;1.95;;
14118;SDS011;7138;49.246;9.100;2023-05-10T01:50:30;3.70;;;1.92;;
14118;SDS011;7138;49.246;9.100;2023-05-10T01:52:59;4.10;;;1.88;;
14118;SDS011;7138;49.246;9.100;2023-05-10T01:55:28;2.58;;;1.67;;
14118;SDS011;7138;49.246;9.100;2023-05-10T01:58:01;3.20;;;2.20;;
14118;SDS011;7138;49.246;9.100;2023-05-10T02:00:36;3.28;;;2.00;;
14118;SDS011;7138;49.246;9.100;2023-05-10T02:03:10;3.67;;;2.50;;
14118;SDS011;7138;49.246;9.100;2023-05-10T02:05:39;4.75;;;2.42;;
14118;SDS011;7138;49.246;9.100;2023-05-10T02:08:10;3.38;;;2.33;;
14118;SDS011;7138;49.246;9.100;2023-05-10T02:10:39;3.15;;;2.22;;
14118;SDS011;7138;49.246;9.100;2023-05-10T02:13:07;3.83;;;2.63;;
14118;SDS011;7138;49.246;9.100;2023-05-10T02:15:36;3.60;;;2.50;;
14118;SDS011;7138;49.246;9.100;2023-05-10T02:18:05;3.67;;;2.88;;
14118;SDS011;7138;49.246;9.100;2023-05-10T02:20:35;4.05;;;2.80;;
14118;SDS011;7138;49.246;9.100;2023-05-10T02:23:02;3.92;;;2.88;;
14118;SDS011;7138;49.246;9.100;2023-05-10T02:25:30;4.35;;;2.80;;
14118;SDS011;7138;49.246;9.100;2023-05-10T02:27:58;4.63;;;2.72;;
14118;SDS011;7138;49.246;9.100;2023-05-10T02:30:28;5.35;;;3.05;;
14118;SDS011;7138;49.246;9.100;2023-05-10T02:32:57;4.03;;;2.80;;
14118;SDS011;7138;49.246;9.100;2023-05-10T02:35:24;4.00;;;2.75;;
14118;SDS011;7138;49.246;9.100;2023-05-10T02:37:53;4.20;;;2.40;;
14118;SDS011;7138;49.246;9.100;2023-05-10T02:40:21;4.43;;;2.50;;
14118;SDS011;7138;49.246;9.100;2023-05-10T02:42:50;4.60;;;2.80;;
14118;SDS011;7138;49.246;9.100;2023-05-10T02:45:21;4.30;;;2.78;;
14118;SDS011;7138;49.246;9.100;2023-05-10T02:47:53;6.13;;;2.80;;
14118;SDS011;7138;49.246;9.100;2023-05-10T02:50:19;4.00;;;3.15;;
14118;SDS011;7138;49.246;9.100;2023-05-10T02:52:47;3.50;;;2.63;;
14118;SDS011;7138;49.246;9.100;2023-05-10T02:55:21;4.47;;;3.30;;
14118;SDS011;7138;49.246;9.100;2023-05-10T02:57:54;5.40;;;3.65;;
14118;SDS011;7138;49.246;9.100;2023-05-10T03:00:25;4.40;;;3.70;;
14118;SDS011;7138;49.246;9.100;2023-05-10T03:02:51;5.05;;;4.05;;
14118;SDS011;7138;49.246;9.100;2023-05-10T03:05:17;5.22;;;3.42;;
14118;SDS011;7138;49.246;9.100;2023-05-10T03:07:43;5.25;;;3.53;;
14118;SDS011;7138;49.246;9.100;2023-05-10T03:10:10;5.88;;;3.80;;
14118;SDS011;7138;49.246;9.100;2023-05-10T03:12:41;5.10;;;4.07;;
14118;SDS011;7138;49.246;9.100;2023-05-10T03:15:29;5.03;;;3.83;;
14118;SDS011;7138;49.246;9.100;2023-05-10T03:20:36;6.60;;;3.67;;
14118;SDS011;7138;49.246;9.100;2023-05-10T03:23:12;4.82;;;3.70;;
14118;SDS011;7138;49.246;9.100;2023-05-10T03:25:47;5.57;;;3.50;;
14118;SDS011;7138;49.246;9.100;2023-05-10T03:28:17;6.03;;;4.03;;
14118;SDS011;7138;49.246;9.100;2023-05-10T03:30:45;4.57;;;3.75;;
14118;SDS011;7138;49.246;9.100;2023-05-10T03:33:12;4.70;;;3.75;;
14118;SDS011;7138;49.246;9.100;2023-05-10T03:35:39;8.95;;;4.00;;
14118;SDS011;7138;49.246;9.100;2023-05-10T03:38:05;8.10;;;4.20;;
14118;SDS011;7138;49.246;9.100;2023-05-10T03:40:30;5.07;;;3.80;;
14118;SDS011;7138;49.246;9.100;2023-05-10T03:42:57;6.10;;;4.50;;
14118;SDS011;7138;49.246;9.100;2023-05-10T03:45:24;7.97;;;4.13;;
14118;SDS011;7138;49.246;9.100;2023-05-10T03:47:50;7.57;;;4.13;;
14118;SDS011;7138;49.246;9.100;2023-05-10T03:50:16;5.82;;;4.70;;
14118;SDS011;7138;49.246;9.100;2023-05-10T03:52:42;6.72;;;4.78;;
14118;SDS011;7138;49.246;9.100;2023-05-10T03:55:08;7.80;;;4.72;;
14118;SDS011;7138;49.246;9.100;2023-05-10T03:57:34;14.05;;;6.35;;
14118;SDS011;7138;49.246;9.100;2023-05-10T04:00:00;8.38;;;5.28;;
14118;SDS011;7138;49.246;9.100;2023-05-10T04:02:27;8.43;;;4.82;;
14118;SDS011;7138;49.246;9.100;2023-05-10T04:04:54;7.50;;;5.25;;
14118;SDS011;7138;49.246;9.100;2023-05-10T04:07:20;7.03;;;5.43;;
14118;SDS011;7138;49.246;9.100;2023-05-10T04:09:46;6.68;;;5.97;;
14118;SDS011;7138;49.246;9.100;2023-05-10T04:12:12;6.72;;;5.95;;
14118;SDS011;7138;49.246;9.100;2023-05-10T04:14:38;8.00;;;5.78;;
14118;SDS011;7138;49.246;9.100;2023-05-10T04:17:04;6.50;;;5.60;;
14118;SDS011;7138;49.246;9.100;2023-05-10T04:19:32;5.90;;;4.88;;
14118;SDS011;7138;49.246;9.100;2023-05-10T04:21:58;7.55;;;5.10;;
14118;SDS011;7138;49.246;9.100;2023-05-10T04:24:24;9.43;;;5.55;;
14118;SDS011;7138;49.246;9.100;2023-05-10T04:26:50;8.25;;;5.05;;
14118;SDS011;7138;49.246;9.100;2023-05-10T04:29:16;5.95;;;5.22;;
14118;SDS011;7138;49.246;9.100;2023-05-10T04:31:42;8.20;;;4.60;;
14118;SDS011;7138;49.246;9.100;2023-05-10T04:34:08;5.38;;;4.65;;
14118;SDS011;7138;49.246;9.100;2023-05-10T04:36:35;6.25;;;4.68;;
14118;SDS011;7138;49.246;9.100;2023-05-10T04:39:01;5.35;;;4.20;;
14118;SDS011;7138;49.246;9.100;2023-05-10T04:41:28;6.30;;;4.70;;
14118;SDS011;7138;49.246;9.100;2023-05-10T04:43:54;7.70;;;4.90;;
14118;SDS011;7138;49.246;9.100;2023-05-10T04:46:20;6.78;;;4.63;;
14118;SDS011;7138;49.246;9.100;2023-05-10T04:48:46;7.00;;;4.97;;
14118;SDS011;7138;49.246;9.100;2023-05-10T04:51:12;10.50;;;5.28;;
14118;SDS011;7138;49.246;9.100;2023-05-10T04:53:40;8.07;;;5.25;;
14118;SDS011;7138;49.246;9.100;2023-05-10T04:56:06;8.20;;;4.90;;
14118;SDS011;7138;49.246;9.100;2023-05-10T04:58:32;6.05;;;5.10;;
14118;SDS011;7138;49.246;9.100;2023-05-10T05:01:04;7.32;;;5.28;;
14118;SDS011;7138;49.246;9.100;2023-05-10T05:03:31;11.27;;;5.30;;
14118;SDS011;7138;49.246;9.100;2023-05-10T05:05:57;5.97;;;5.00;;
14118;SDS011;7138;49.246;9.100;2023-05-10T05:08:23;9.30;;;5.80;;
14118;SDS011;7138;49.246;9.100;2023-05-10T05:10:50;6.70;;;6.00;;
14118;SDS011;7138;49.246;9.100;2023-05-10T05:13:16;8.85;;;6.05;;
14118;SDS011;7138;49.246;9.100;2023-05-10T05:15:42;7.85;;;5.90;;
14118;SDS011;7138;49.246;9.100;2023-05-10T05:18:08;8.80;;;6.07;;
14118;SDS011;7138;49.246;9.100;2023-05-10T05:20:33;7.72;;;6.10;;
14118;SDS011;7138;49.246;9.100;2023-05-10T05:22:59;9.73;;;6.60;;
14118;SDS011;7138;49.246;9.100;2023-05-10T05:25:26;9.73;;;6.00;;
14118;SDS011;7138;49.246;9.100;2023-05-10T05:27:53;8.15;;;6.60;;
14118;SDS011;7138;49.246;9.100;2023-05-10T05:30:19;9.45;;;6.38;;
14118;SDS011;7138;49.246;9.100;2023-05-10T05:32:45;7.97;;;6.60;;
14118;SDS011;7138;49.246;9.100;2023-05-10T05:35:12;8.15;;;6.10;;
14118;SDS011;7138;49.246;9.100;2023-05-10T05:37:38;7.20;;;5.38;;
14118;SDS011;7138;49.246;9.100;2023-05-10T05:40:04;7.72;;;5.97;;
14118;SDS011;7138;49.246;9.100;2023-05-10T05:42:32;9.07;;;5.53;;
14118;SDS011;7138;49.246;9.100;2023-05-10T05:44:59;6.95;;;5.60;;
14118;SDS011;7138;49.246;9.100;2023-05-10T05:47:25;7.70;;;6.00;;
14118;SDS011;7138;49.246;9.100;2023-05-10T05:49:51;7.85;;;5.85;;
14118;SDS011;7138;49.246;9.100;2023-05-10T05:52:17;7.20;;;6.15;;
14118;SDS011;7138;49.246;9.100;2023-05-10T05:54:42;8.73;;;6.22;;
14118;SDS011;7138;49.246;9.100;2023-05-10T05:57:08;6.78;;;5.85;;
14118;SDS011;7138;49.246;9.100;2023-05-10T05:59:34;6.22;;;5.15;;
14118;SDS011;7138;49.246;9.100;2023-05-10T06:02:02;6.97;;;5.32;;
14118;SDS011;7138;49.246;9.100;2023-05-10T06:04:27;6.15;;;5.05;;
14118;SDS011;7138;49.246;9.100;2023-05-10T06:06:53;8.77;;;5.13;;
14118;SDS011;7138;49.246;9.100;2023-05-10T06:09:19;5.68;;;5.07;;
14118;SDS011;7138;49.246;9.100;2023-05-10T06:11:45;8.05;;;5.40;;
14118;SDS011;7138;49.246;9.100;2023-05-10T06:14:11;8.10;;;5.10;;
14118;SDS011;7138;49.246;9.100;2023-05-10T06:16:37;7.07;;;5.60;;
14118;SDS011;7138;49.246;9.100;2023-05-10T06:19:04;7.15;;;5.55;;
14118;SDS011;7138;49.246;9.100;2023-05-10T06:21:33;6.30;;;4.68;;
14118;SDS011;7138;49.246;9.100;2023-05-10T06:23:59;6.25;;;4.85;;
14118;SDS011;7138;49.246;9.100;2023-05-10T06:26:25;6.13;;;4.93;;
14118;SDS011;7138;49.246;9.100;2023-05-10T06:28:50;6.78;;;4.72;;
14118;SDS011;7138;49.246;9.100;2023-05-10T06:31:16;6.63;;;5.25;;
14118;SDS011;7138;49.246;9.100;2023-05-10T06:33:42;6.78;;;5.20;;
14118;SDS011;7138;49.246;9.100;2023-05-10T06:36:09;5.22;;;4.25;;
14118;SDS011;7138;49.246;9.100;2023-05-10T06:38:36;5.60;;;4.00;;
14118;SDS011;7138;49.246;9.100;2023-05-10T06:41:02;6.43;;;3.50;;
14118;SDS011;7138;49.246;9.100;2023-05-10T06:43:28;8.13;;;3.50;;
14118;SDS011;7138;49.246;9.100;2023-05-10T06:45:54;4.35;;;2.80;;
14118;SDS011;7138;49.246;9.100;2023-05-10T06:48:19;6.15;;;2.97;;
14118;SDS011;7138;49.246;9.100;2023-05-10T06:50:45;5.45;;;2.90;;
14118;SDS011;7138;49.246;9.100;2023-05-10T06:53:12;4.60;;;3.17;;
14118;SDS011;7138;49.246;9.100;2023-05-10T06:55:38;3.90;;;2.88;;
14118;SDS011;7138;49.246;9.100;2023-05-10T06:58:04;4.55;;;3.00;;
14118;SDS011;7138;49.246;9.100;2023-05-10T07:00:31;4.38;;;3.03;;
14118;SDS011;7138;49.246;9.100;2023-05-10T07:02:57;5.03;;;3.55;;
14118;SDS011;7138;49.246;9.100;2023-05-10T07:05:23;5.57;;;3.70;;
14118;SDS011;7138;49.246;9.100;2023-05-10T07:07:49;5.63;;;3.15;;
14118;SDS011;7138;49.246;9.100;2023-05-10T07:10:16;5.32;;;3.35;;
14118;SDS011;7138;49.246;9.100;2023-05-10T07:12:42;4.97;;;3.25;;
14118;SDS011;7138;49.246;9.100;2023-05-10T07:15:08;4.50;;;3.40;;
14118;SDS011;7138;49.246;9.100;2023-05-10T07:17:35;4.68;;;3.20;;
14118;SDS011;7138;49.246;9.100;2023-05-10T07:20:00;5.20;;;3.33;;
14118;SDS011;7138;49.246;9.100;2023-05-10T07:22:27;6.10;;;3.38;;
14118;SDS011;7138;49.246;9.100;2023-05-10T07:24:53;4.75;;;3.10;;
14118;SDS011;7138;49.246;9.100;2023-05-10T07:27:20;5.05;;;3.30;;
14118;SDS011;7138;49.246;9.100;2023-05-10T07:29:46;4.22;;;3.00;;
14118;SDS011;7138;49.246;9.100;2023-05-10T07:32:12;4.60;;;3.03;;
14118;SDS011;7138;49.246;9.100;2023-05-10T07:34:38;4.68;;;3.50;;
14118;SDS011;7138;49.246;9.100;2023-05-10T07:37:04;5.90;;;3.17;;
14118;SDS011;7138;49.246;9.100;2023-05-10T07:39:31;5.13;;;2.80;;
14118;SDS011;7138;49.246;9.100;2023-05-10T07:41:56;4.40;;;3.00;;
14118;SDS011;7138;49.246;9.100;2023-05-10T07:44:24;6.18;;;3.22;;
14118;SDS011;7138;49.246;9.100;2023-05-10T07:46:49;4.93;;;3.22;;
14118;SDS011;7138;49.246;9.100;2023-05-10T07:49:15;6.00;;;3.30;;
14118;SDS011;7138;49.246;9.100;2023-05-10T07:51:41;4.40;;;2.78;;
14118;SDS011;7138;49.246;9.100;2023-05-10T07:54:07;3.75;;;2.25;;
14118;SDS011;7138;49.246;9.100;2023-05-10T07:56:33;4.15;;;2.20;;
14118;SDS011;7138;49.246;9.100;2023-05-10T07:59:00;3.80;;;2.30;;
14118;SDS011;7138;49.246;9.100;2023-05-10T08:01:33;6.03;;;2.40;;
14118;SDS011;7138;49.246;9.100;2023-05-10T08:04:00;3.90;;;2.42;;
14118;SDS011;7138;49.246;9.100;2023-05-10T08:06:26;5.15;;;2.17;;
14118;SDS011;7138;49.246;9.100;2023-05-10T08:08:55;5.28;;;2.60;;
14118;SDS011;7138;49.246;9.100;2023-05-10T08:11:21;3.92;;;2.47;;
14118;SDS011;7138;49.246;9.100;2023-05-10T08:13:48;3.78;;;2.03;;
14118;SDS011;7138;49.246;9.100;2023-05-10T08:16:15;3.40;;;2.00;;
14118;SDS011;7138;49.246;9.100;2023-05-10T08:18:43;3.03;;;1.70;;
14118;SDS011;7138;49.246;9.100;2023-05-10T08:21:10;4.50;;;1.55;;
14118;SDS011;7138;49.246;9.100;2023-05-10T08:23:36;3.03;;;1.75;;
14118;SDS011;7138;49.246;9.100;2023-05-10T08:26:02;3.17;;;1.70;;
14118;SDS011;7138;49.246;9.100;2023-05-10T08:28:28;2.70;;;1.40;;
14118;SDS011;7138;49.246;9.100;2023-05-10T08:30:54;3.75;;;1.65;;
14118;SDS011;7138;49.246;9.100;2023-05-10T08:33:20;2.88;;;1.50;;
14118;SDS011;7138;49.246;9.100;2023-05-10T08:35:48;3.90;;;1.50;;
14118;SDS011;7138;49.246;9.100;2023-05-10T08:38:14;3.65;;;1.73;;
14118;SDS011;7138;49.246;9.100;2023-05-10T08:40:40;3.78;;;1.70;;
14118;SDS011;7138;49.246;9.100;2023-05-10T08:43:09;3.50;;;1.40;;
14118;SDS011;7138;49.246;9.100;2023-05-10T08:45:37;2.42;;;1.27;;
14118;SDS011;7138;49.246;9.100;2023-05-10T08:48:05;3.28;;;1.40;;
14118;SDS011;7138;49.246;9.100;2023-05-10T08:50:33;3.22;;;1.23;;
14118;SDS011;7138;49.246;9.100;2023-05-10T08:53:04;2.70;;;1.20;;
14118;SDS011;7138;49.246;9.100;2023-05-10T08:55:34;4.45;;;1.25;;
14118;SDS011;7138;49.246;9.100;2023-05-10T08:58:02;3.33;;;1.10;;
14118;SDS011;7138;49.246;9.100;2023-05-10T09:00:29;3.10;;;1.20;;
14118;SDS011;7138;49.246;9.100;2023-05-10T09:02:55;2.83;;;0.90;;
14118;SDS011;7138;49.246;9.100;2023-05-10T09:05:23;2.22;;;0.98;;
14118;SDS011;7138;49.246;9.100;2023-05-10T09:07:49;4.00;;;1.10;;
14118;SDS011;7138;49.246;9.100;2023-05-10T09:10:16;2.47;;;0.93;;
14118;SDS011;7138;49.246;9.100;2023-05-10T09:12:42;2.30;;;0.75;;
14118;SDS011;7138;49.246;9.100;2023-05-10T09:15:10;2.28;;;0.82;;
14118;SDS011;7138;49.246;9.100;2023-05-10T09:17:39;2.30;;;0.63;;
14118;SDS011;7138;49.246;9.100;2023-05-10T09:20:07;8.88;;;1.00;;
14118;SDS011;7138;49.246;9.100;2023-05-10T09:22:33;7.03;;;1.02;;
14118;SDS011;7138;49.246;9.100;2023-05-10T09:25:06;2.10;;;0.73;;
14118;SDS011;7138;49.246;9.100;2023-05-10T09:27:37;1.83;;;0.80;;
14118;SDS011;7138;49.246;9.100;2023-05-10T09:30:05;1.92;;;0.80;;
14118;SDS011;7138;49.246;9.100;2023-05-10T09:32:36;4.20;;;0.90;;
14118;SDS011;7138;49.246;9.100;2023-05-10T09:35:09;1.67;;;0.80;;
14118;SDS011;7138;49.246;9.100;2023-05-10T09:37:36;1.77;;;0.57;;
14118;SDS011;7138;49.246;9.100;2023-05-10T09:40:10;2.17;;;0.80;;
14118;SDS011;7138;49.246;9.100;2023-05-10T09:42:39;2.45;;;0.88;;
14118;SDS011;7138;49.246;9.100;2023-05-10T09:45:08;1.40;;;0.70;;
14118;SDS011;7138;49.246;9.100;2023-05-10T09:47:35;2.50;;;1.23;;
14118;SDS011;7138;49.246;9.100;2023-05-10T09:50:01;5.53;;;0.82;;
14118;SDS011;7138;49.246;9.100;2023-05-10T09:52:29;2.50;;;0.80;;
14118;SDS011;7138;49.246;9.100;2023-05-10T09:54:55;1.80;;;0.70;;
14118;SDS011;7138;49.246;9.100;2023-05-10T09:57:22;1.70;;;0.68;;
14118;SDS011;7138;49.246;9.100;2023-05-10T09:59:51;2.10;;;0.75;;
14118;SDS011;7138;49.246;9.100;2023-05-10T10:02:19;2.40;;;0.68;;
14118;SDS011;7138;49.246;9.100;2023-05-10T10:04:45;2.17;;;0.90;;
14118;SDS011;7138;49.246;9.100;2023-05-10T10:07:15;1.92;;;0.80;;
14118;SDS011;7138;49.246;9.100;2023-05-10T10:09:49;3.33;;;0.70;;
14118;SDS011;7138;49.246;9.100;2023-05-10T10:12:16;2.40;;;0.70;;
14118;SDS011;7138;49.246;9.100;2023-05-10T10:14:42;3.40;;;1.13;;
14118;SDS011;7138;49.246;9.100;2023-05-10T10:17:10;2.30;;;0.73;;
14118;SDS011;7138;49.246;9.100;2023-05-10T10:19:37;2.70;;;0.90;;
14118;SDS011;7138;49.246;9.100;2023-05-10T10:22:04;1.75;;;0.60;;
14118;SDS011;7138;49.246;9.100;2023-05-10T10:24:30;1.77;;;0.70;;
14118;SDS011;7138;49.246;9.100;2023-05-10T10:26:57;2.13;;;0.70;;
14118;SDS011;7138;49.246;9.100;2023-05-10T10:29:41;5.07;;;0.60;;
14118;SDS011;7138;49.246;9.100;2023-05-10T10:32:24;7.15;;;0.90;;
14118;SDS011;7138;49.246;9.100;2023-05-10T10:35:02;4.22;;;0.77;;
14118;SDS011;7138;49.246;9.100;2023-05-10T10:40:24;2.88;;;0.70;;
14118;SDS011;7138;49.246;9.100;2023-05-10T10:42:55;3.58;;;0.73;;
14118;SDS011;7138;49.246;9.100;2023-05-10T10:45:23;2.33;;;0.80;;
14118;SDS011;7138;49.246;9.100;2023-05-10T10:47:56;1.63;;;0.60;;
14118;SDS011;7138;49.246;9.100;2023-05-10T10:50:47;3.92;;;0.82;;
14118;SDS011;7138;49.246;9.100;2023-05-10T10:53:20;2.22;;;0.88;;
14118;SDS011;7138;49.246;9.100;2023-05-10T10:55:46;1.73;;;0.73;;
14118;SDS011;7138;49.246;9.100;2023-05-10T10:58:28;2.30;;;0.63;;
14118;SDS011;7138;49.246;9.100;2023-05-10T11:01:11;1.67;;;0.70;;
14118;SDS011;7138;49.246;9.100;2023-05-10T11:03:41;2.13;;;0.57;;
14118;SDS011;7138;49.246;9.100;2023-05-10T11:06:44;3.10;;;0.65;;
14118;SDS011;7138;49.246;9.100;2023-05-10T11:09:11;3.67;;;0.70;;
14118;SDS011;7138;49.246;9.100;2023-05-10T11:11:48;3.20;;;0.93;;
14118;SDS011;7138;49.246;9.100;2023-05-10T11:14:19;2.97;;;0.90;;
14118;SDS011;7138;49.246;9.100;2023-05-10T11:16:47;2.47;;;0.93;;
14118;SDS011;7138;49.246;9.100;2023-05-10T11:19:14;2.95;;;0.70;;
14118;SDS011;7138;49.246;9.100;2023-05-10T11:21:47;1.90;;;0.75;;
14118;SDS011;7138;49.246;9.100;2023-05-10T11:24:14;3.75;;;0.70;;
14118;SDS011;7138;49.246;9.100;2023-05-10T11:26:42;2.90;;;0.80;;
14118;SDS011;7138;49.246;9.100;2023-05-10T11:29:08;2.00;;;0.70;;
14118;SDS011;7138;49.246;9.100;2023-05-10T11:31:34;2.58;;;0.60;;
14118;SDS011;7138;49.246;9.100;2023-05-10T11:34:07;1.60;;;0.60;;
14118;SDS011;7138;49.246;9.100;2023-05-10T11:36:33;2.50;;;0.55;;
14118;SDS011;7138;49.246;9.100;2023-05-10T11:39:02;2.13;;;0.60;;
14118;SDS011;7138;49.246;9.100;2023-05-10T11:41:29;2.20;;;0.80;;
14118;SDS011;7138;49.246;9.100;2023-05-10T11:43:57;1.77;;;0.60;;
14118;SDS011;7138;49.246;9.100;2023-05-10T11:46:24;1.52;;;0.63;;
14118;SDS011;7138;49.246;9.100;2023-05-10T11:48:53;1.75;;;0.70;;
14118;SDS011;7138;49.246;9.100;2023-05-10T11:51:26;2.95;;;0.70;;
14118;SDS011;7138;49.246;9.100;2023-05-10T11:53:53;4.68;;;0.90;;
14118;SDS011;7138;49.246;9.100;2023-05-10T11:56:22;1.30;;;0.60;;
14118;SDS011;7138;49.246;9.100;2023-05-10T11:58:52;1.75;;;0.47;;
14118;SDS011;7138;49.246;9.100;2023-05-10T12:01:20;1.90;;;0.60;;
14118;SDS011;7138;49.246;9.100;2023-05-10T12:03:47;3.38;;;0.88;;
14118;SDS011;7138;49.246;9.100;2023-05-10T12:06:15;1.92;;;0.77;;
14118;SDS011;7138;49.246;9.100;2023-05-10T12:08:44;4.70;;;0.95;;
14118;SDS011;7138;49.246;9.100;2023-05-10T12:11:12;2.70;;;0.80;;
14118;SDS011;7138;49.246;9.100;2023-05-10T12:13:43;2.55;;;0.80;;
14118;SDS011;7138;49.246;9.100;2023-05-10T12:16:13;3.70;;;1.00;;
14118;SDS011;7138;49.246;9.100;2023-05-10T12:18:40;4.13;;;1.08;;
14118;SDS011;7138;49.246;9.100;2023-05-10T12:21:07;5.03;;;0.90;;
14118;SDS011;7138;49.246;9.100;2023-05-10T12:23:35;3.08;;;1.10;;
14118;SDS011;7138;49.246;9.100;2023-05-10T12:26:01;2.70;;;0.95;;
14118;SDS011;7138;49.246;9.100;2023-05-10T12:28:31;2.03;;;0.80;;
14118;SDS011;7138;49.246;9.100;2023-05-10T12:30:59;3.75;;;0.80;;
14118;SDS011;7138;49.246;9.100;2023-05-10T12:33:27;2.25;;;0.73;;
14118;SDS011;7138;49.246;9.100;2023-05-10T12:36:00;2.42;;;1.05;;
14118;SDS011;7138;49.246;9.100;2023-05-10T12:38:28;4.78;;;1.10;;
14118;SDS011;7138;49.246;9.100;2023-05-10T12:40:57;4.88;;;1.20;;
14118;SDS011;7138;49.246;9.100;2023-05-10T12:43:25;2.80;;;1.00;;
14118;SDS011;7138;49.246;9.100;2023-05-10T12:45:51;3.67;;;0.85;;
14118;SDS011;7138;49.246;9.100;2023-05-10T12:48:18;3.58;;;0.90;;
14118;SDS011;7138;49.246;9.100;2023-05-10T12:50:44;8.15;;;0.95;;
14118;SDS011;7138;49.246;9.100;2023-05-10T12:53:11;2.58;;;0.98;;
14118;SDS011;7138;49.246;9.100;2023-05-10T12:55:40;4.60;;;0.82;;
14118;SDS011;7138;49.246;9.100;2023-05-10T12:58:06;4.82;;;1.00;;
14118;SDS011;7138;49.246;9.100;2023-05-10T13:00:31;3.65;;;0.52;;
14118;SDS011;7138;49.246;9.100;2023-05-10T13:02:57;2.40;;;0.70;;
14118;SDS011;7138;49.246;9.100;2023-05-10T13:05:25;2.47;;;0.90;;
14118;SDS011;7138;49.246;9.100;2023-05-10T13:07:50;8.20;;;1.92;;
14118;SDS011;7138;49.246;9.100;2023-05-10T13:10:16;3.95;;;1.17;;
14118;SDS011;7138;49.246;9.100;2023-05-10T13:12:42;5.18;;;1.45;;
14118;SDS011;7138;49.246;9.100;2023-05-10T13:15:08;2.50;;;0.82;;
14118;SDS011;7138;49.246;9.100;2023-05-10T13:17:35;5.22;;;1.17;;
14118;SDS011;7138;49.246;9.100;2023-05-10T13:20:00;3.55;;;0.98;;
14118;SDS011;7138;49.246;9.100;2023-05-10T13:22:27;5.25;;;1.10;;
14118;SDS011;7138;49.246;9.100;2023-05-10T13:24:55;5.60;;;0.90;;
14118;SDS011;7138;49.246;9.100;2023-05-10T13:27:21;3.55;;;1.05;;
14118;SDS011;7138;49.246;9.100;2023-05-10T13:29:47;3.28;;;1.17;;
14118;SDS011;7138;49.246;9.100;2023-05-10T13:32:12;3.15;;;0.75;;
14118;SDS011;7138;49.246;9.100;2023-05-10T13:34:38;3.25;;;1.20;;
14118;SDS011;7138;49.246;9.100;2023-05-10T13:37:04;3.13;;;0.85;;
14118;SDS011;7138;49.246;9.100;2023-05-10T13:39:31;3.35;;;1.30;;
14118;SDS011;7138;49.246;9.100;2023-05-10T13:41:59;5.13;;;1.10;;
14118;SDS011;7138;49.246;9.100;2023-05-10T13:44:25;4.35;;;1.10;;
14118;SDS011;7138;49.246;9.100;2023-05-10T13:46:51;3.70;;;0.98;;
14118;SDS011;7138;49.246;9.100;2023-05-10T13:49:16;3.17;;;1.35;;
14118;SDS011;7138;49.246;9.100;2023-05-10T13:51:42;3.47;;;1.00;;
14118;SDS011;7138;49.246;9.100;2023-05-10T13:54:08;3.20;;;1.05;;
14118;SDS011;7138;49.246;9.100;2023-05-10T13:56:36;4.75;;;1.00;;
14118;SDS011;7138;49.246;9.100;2023-05-10T13:59:01;5.72;;;1.17;;
14118;SDS011;7138;49.246;9.100;2023-05-10T14:01:27;3.17;;;1.05;;
14118;SDS011;7138;49.246;9.100;2023-05-10T14:03:53;7.07;;;0.90;;
14118;SDS011;7138;49.246;9.100;2023-05-10T14:06:19;5.70;;;1.10;;
14118;SDS011;7138;49.246;9.100;2023-05-10T14:08:45;3.42;;;1.15;;
14118;SDS011;7138;49.246;9.100;2023-05-10T14:11:11;3.00;;;1.00;;
14118;SDS011;7138;49.246;9.100;2023-05-10T14:13:39;3.22;;;0.70;;
14118;SDS011;7138;49.246;9.100;2023-05-10T14:16:05;3.83;;;0.93;;
14118;SDS011;7138;49.246;9.100;2023-05-10T14:18:31;3.15;;;0.80;;
14118;SDS011;7138;49.246;9.100;2023-05-10T14:20:57;2.75;;;0.90;;
14118;SDS011;7138;49.246;9.100;2023-05-10T14:23:23;4.80;;;1.00;;
14118;SDS011;7138;49.246;9.100;2023-05-10T14:25:49;3.10;;;1.25;;
14118;SDS011;7138;49.246;9.100;2023-05-10T14:28:15;3.35;;;0.77;;
14118;SDS011;7138;49.246;9.100;2023-05-10T14:30:44;3.13;;;0.80;;
14118;SDS011;7138;49.246;9.100;2023-05-10T14:33:10;3.10;;;0.65;;
14118;SDS011;7138;49.246;9.100;2023-05-10T14:35:36;2.08;;;0.70;;
14118;SDS011;7138;49.246;9.100;2023-05-10T14:38:02;4.10;;;0.80;;
14118;SDS011;7138;49.246;9.100;2023-05-10T14:40:28;4.30;;;1.20;;
14118;SDS011;7138;49.246;9.100;2023-05-10T14:42:54;2.97;;;0.70;;
14118;SDS011;7138;49.246;9.100;2023-05-10T14:45:21;3.00;;;0.80;;
14118;SDS011;7138;49.246;9.100;2023-05-10T14:47:49;3.10;;;0.90;;
14118;SDS011;7138;49.246;9.100;2023-05-10T14:50:15;2.97;;;0.80;;
14118;SDS011;7138;49.246;9.100;2023-05-10T14:52:42;2.85;;;0.85;;
14118;SDS011;7138;49.246;9.100;2023-05-10T14:55:09;4.93;;;0.90;;
14118;SDS011;7138;49.246;9.100;2023-05-10T14:57:36;2.72;;;1.05;;
14118;SDS011;7138;49.246;9.100;2023-05-10T15:00:02;2.35;;;0.80;;
14118;SDS011;7138;49.246;9.100;2023-05-10T15:02:30;3.25;;;1.05;;
14118;SDS011;7138;49.246;9.100;2023-05-10T15:04:57;4.00;;;0.95;;
14118;SDS011;7138;49.246;9.100;2023-05-10T15:07:23;4.43;;;0.82;;
14118;SDS011;7138;49.246;9.100;2023-05-10T15:09:49;3.92;;;0.90;;
14118;SDS011;7138;49.246;9.100;2023-05-10T15:12:16;4.18;;;0.90;;